TVF8602 LFPO-DTTJ
Flight info
| Callsign | TVF8602 |
|---|---|
| Flight time | N/A |
| Altitude | 35000 |
| Route | ERIXU DCT ETAMO DCT ADEKA DCT MOKDI DCT MEN DCT AMLIR DCT FJR DCT DIVKO DCT JUSQO DCT FIRRA DCT NAFOQ DCT SALMA UG6 DIMAO UZ147 KIRAS A856 TINAP |
| Aircraft | B738/M-SDE2E3FGHIRWXY/LB1 |
Departure
| Time | N/A |
|---|---|
| Airport | Paris-Orly Airport (LFPO) |
Arrival
| Time | 2026-04-27 13:46 |
|---|---|
| Airport | Djerba Zarzis International Airport (DTTJ) |
| Time | Latitude | Longitude | Altitude | Speed | Heading |
|---|---|---|---|---|---|
| 2026-04-27 13:15 | 36.18258 | 8.55010 | 35045 ft | 483 kts | 153° |
| 2026-04-27 13:16 | 36.12696 | 8.59612 | 35061 ft | 484 kts | 153° |
| 2026-04-27 13:16 | 36.07063 | 8.64260 | 35066 ft | 486 kts | 153° |
| 2026-04-27 13:17 | 36.01433 | 8.68882 | 35060 ft | 487 kts | 153° |
| 2026-04-27 13:17 | 35.95787 | 8.73502 | 35056 ft | 488 kts | 153° |
| 2026-04-27 13:18 | 35.90165 | 8.78098 | 35040 ft | 488 kts | 153° |
| 2026-04-27 13:18 | 35.84479 | 8.82740 | 34746 ft | 489 kts | 153° |
| 2026-04-27 13:19 | 35.81649 | 8.85049 | 34298 ft | 487 kts | 153° |
| 2026-04-27 13:19 | 35.78833 | 8.87346 | 33858 ft | 484 kts | 153° |
| 2026-04-27 13:19 | 35.76029 | 8.89631 | 33377 ft | 483 kts | 153° |
| 2026-04-27 13:19 | 35.73225 | 8.91912 | 32906 ft | 482 kts | 153° |
| 2026-04-27 13:20 | 35.70427 | 8.94184 | 32439 ft | 482 kts | 153° |
| 2026-04-27 13:20 | 35.67654 | 8.96434 | 31990 ft | 481 kts | 153° |
| 2026-04-27 13:20 | 35.64858 | 8.98702 | 31535 ft | 482 kts | 153° |
| 2026-04-27 13:20 | 35.62046 | 9.00981 | 31091 ft | 482 kts | 153° |
| 2026-04-27 13:21 | 35.59229 | 9.03265 | 30660 ft | 483 kts | 153° |
| 2026-04-27 13:21 | 35.56415 | 9.05542 | 30235 ft | 484 kts | 153° |
| 2026-04-27 13:21 | 35.53598 | 9.07811 | 29750 ft | 485 kts | 154° |
| 2026-04-27 13:21 | 35.50772 | 9.09996 | 29247 ft | 485 kts | 154° |
| 2026-04-27 13:22 | 35.47882 | 9.12166 | 28756 ft | 486 kts | 154° |
| 2026-04-27 13:22 | 35.44979 | 9.14322 | 28274 ft | 487 kts | 154° |
| 2026-04-27 13:22 | 35.42070 | 9.16485 | 27799 ft | 488 kts | 154° |
| 2026-04-27 13:22 | 35.39196 | 9.18631 | 27325 ft | 488 kts | 153° |
| 2026-04-27 13:23 | 35.36286 | 9.20815 | 26855 ft | 489 kts | 153° |
| 2026-04-27 13:23 | 35.33381 | 9.23000 | 26400 ft | 489 kts | 153° |
| 2026-04-27 13:23 | 35.30482 | 9.25184 | 25954 ft | 490 kts | 153° |
| 2026-04-27 13:23 | 35.27578 | 9.27372 | 25519 ft | 489 kts | 153° |
| 2026-04-27 13:24 | 35.25658 | 9.28818 | 25232 ft | 489 kts | 153° |
| 2026-04-27 13:24 | 35.21819 | 9.31707 | 24668 ft | 487 kts | 152° |
| 2026-04-27 13:24 | 35.19870 | 9.33172 | 24383 ft | 485 kts | 152° |
| 2026-04-27 13:24 | 35.16999 | 9.35328 | 23964 ft | 482 kts | 152° |
| 2026-04-27 13:25 | 35.14181 | 9.37442 | 23546 ft | 479 kts | 152° |
| 2026-04-27 13:25 | 35.11349 | 9.39564 | 23041 ft | 475 kts | 152° |
| 2026-04-27 13:25 | 35.08546 | 9.41662 | 22561 ft | 471 kts | 152° |
| 2026-04-27 13:25 | 35.05766 | 9.43741 | 22088 ft | 466 kts | 152° |
| 2026-04-27 13:26 | 35.03004 | 9.45805 | 21620 ft | 462 kts | 152° |
| 2026-04-27 13:26 | 35.00266 | 9.47848 | 21163 ft | 458 kts | 152° |
| 2026-04-27 13:26 | 34.97559 | 9.49867 | 20713 ft | 455 kts | 152° |
| 2026-04-27 13:26 | 34.94904 | 9.51845 | 20277 ft | 451 kts | 152° |
| 2026-04-27 13:27 | 34.92233 | 9.53834 | 19840 ft | 448 kts | 152° |
| 2026-04-27 13:27 | 34.89573 | 9.55813 | 19410 ft | 445 kts | 152° |
| 2026-04-27 13:27 | 34.86940 | 9.57771 | 18982 ft | 442 kts | 152° |
| 2026-04-27 13:27 | 34.84349 | 9.59696 | 18569 ft | 439 kts | 152° |
| 2026-04-27 13:28 | 34.81741 | 9.61632 | 18119 ft | 436 kts | 152° |
| 2026-04-27 13:28 | 34.79157 | 9.63549 | 17630 ft | 433 kts | 152° |
| 2026-04-27 13:28 | 34.76585 | 9.65456 | 17169 ft | 430 kts | 152° |
| 2026-04-27 13:28 | 34.74041 | 9.67341 | 16711 ft | 427 kts | 152° |
| 2026-04-27 13:29 | 34.71509 | 9.69216 | 16254 ft | 424 kts | 152° |
| 2026-04-27 13:29 | 34.69023 | 9.71056 | 15816 ft | 421 kts | 152° |
| 2026-04-27 13:29 | 34.66527 | 9.72901 | 15370 ft | 418 kts | 152° |
| 2026-04-27 13:29 | 34.64052 | 9.74730 | 14932 ft | 415 kts | 152° |
| 2026-04-27 13:30 | 34.61579 | 9.76555 | 14492 ft | 412 kts | 152° |
| 2026-04-27 13:30 | 34.59142 | 9.78353 | 14066 ft | 409 kts | 152° |
| 2026-04-27 13:30 | 34.56748 | 9.80119 | 13637 ft | 406 kts | 152° |
| 2026-04-27 13:30 | 34.54333 | 9.81898 | 13159 ft | 403 kts | 152° |
| 2026-04-27 13:31 | 34.51942 | 9.83659 | 12705 ft | 400 kts | 152° |
| 2026-04-27 13:31 | 34.49584 | 9.85395 | 12250 ft | 398 kts | 152° |
| 2026-04-27 13:31 | 34.47247 | 9.87114 | 11813 ft | 395 kts | 152° |
| 2026-04-27 13:31 | 34.44888 | 9.88847 | 11371 ft | 393 kts | 152° |
| 2026-04-27 13:32 | 34.42558 | 9.90569 | 10937 ft | 391 kts | 150° |
| 2026-04-27 13:32 | 34.40400 | 9.92585 | 10506 ft | 391 kts | 140° |
| 2026-04-27 13:32 | 34.38598 | 9.95050 | 10151 ft | 390 kts | 129° |
| 2026-04-27 13:32 | 34.36987 | 9.97728 | 10074 ft | 391 kts | 128° |
| 2026-04-27 13:33 | 34.35412 | 10.00359 | 10044 ft | 391 kts | 129° |
| 2026-04-27 13:33 | 34.33807 | 10.03013 | 10035 ft | 389 kts | 128° |
| 2026-04-27 13:33 | 34.32198 | 10.05646 | 10034 ft | 388 kts | 129° |
| 2026-04-27 13:33 | 34.30604 | 10.08237 | 10033 ft | 385 kts | 129° |
| 2026-04-27 13:34 | 34.29008 | 10.10820 | 10036 ft | 382 kts | 129° |
| 2026-04-27 13:34 | 34.27416 | 10.13398 | 10033 ft | 381 kts | 130° |
| 2026-04-27 13:34 | 34.25860 | 10.15929 | 10021 ft | 365 kts | 129° |
| 2026-04-27 13:34 | 34.24381 | 10.18342 | 9917 ft | 349 kts | 130° |
| 2026-04-27 13:35 | 34.22949 | 10.20667 | 9546 ft | 342 kts | 130° |
| 2026-04-27 13:35 | 34.21532 | 10.22960 | 9132 ft | 338 kts | 130° |
| 2026-04-27 13:35 | 34.20151 | 10.25195 | 8741 ft | 333 kts | 129° |
| 2026-04-27 13:35 | 34.18775 | 10.27425 | 8339 ft | 329 kts | 130° |
| 2026-04-27 13:36 | 34.17413 | 10.29631 | 7949 ft | 324 kts | 130° |
| 2026-04-27 13:36 | 34.16070 | 10.31805 | 7565 ft | 320 kts | 130° |
| 2026-04-27 13:36 | 34.14742 | 10.33952 | 7184 ft | 317 kts | 130° |
| 2026-04-27 13:36 | 34.13441 | 10.36048 | 6812 ft | 313 kts | 131° |
| 2026-04-27 13:37 | 34.11890 | 10.37832 | 6422 ft | 306 kts | 149° |
| 2026-04-27 13:37 | 34.10072 | 10.39118 | 6038 ft | 301 kts | 152° |
| 2026-04-27 13:37 | 34.08269 | 10.40347 | 5627 ft | 291 kts | 151° |
| 2026-04-27 13:37 | 34.06541 | 10.41527 | 5236 ft | 280 kts | 151° |
| 2026-04-27 13:38 | 34.04876 | 10.42671 | 4846 ft | 271 kts | 150° |
| 2026-04-27 13:38 | 34.03257 | 10.43791 | 4442 ft | 263 kts | 149° |
| 2026-04-27 13:38 | 34.01707 | 10.44867 | 4059 ft | 257 kts | 149° |
| 2026-04-27 13:38 | 34.00178 | 10.45933 | 3669 ft | 251 kts | 148° |
| 2026-04-27 13:39 | 33.98679 | 10.46978 | 3272 ft | 246 kts | 147° |
| 2026-04-27 13:39 | 33.97219 | 10.47998 | 2878 ft | 240 kts | 147° |
| 2026-04-27 13:39 | 33.95778 | 10.49006 | 2486 ft | 236 kts | 146° |
| 2026-04-27 13:39 | 33.94375 | 10.49985 | 2092 ft | 226 kts | 146° |
| 2026-04-27 13:40 | 33.93091 | 10.50877 | 2062 ft | 197 kts | 146° |
| 2026-04-27 13:40 | 33.91983 | 10.51644 | 2079 ft | 176 kts | 145° |
| 2026-04-27 13:40 | 33.90951 | 10.52363 | 2079 ft | 174 kts | 144° |
| 2026-04-27 13:40 | 33.89991 | 10.53034 | 2144 ft | 171 kts | 144° |
| 2026-04-27 13:41 | 33.89038 | 10.53698 | 2188 ft | 175 kts | 144° |
| 2026-04-27 13:41 | 33.88018 | 10.54461 | 2186 ft | 174 kts | 134° |
| 2026-04-27 13:41 | 33.87356 | 10.55622 | 2194 ft | 167 kts | 114° |
| 2026-04-27 13:41 | 33.87130 | 10.56956 | 2195 ft | 164 kts | 93° |
| 2026-04-27 13:42 | 33.87108 | 10.58362 | 2173 ft | 170 kts | 91° |
| 2026-04-27 13:42 | 33.87120 | 10.59727 | 2159 ft | 151 kts | 90° |
| 2026-04-27 13:42 | 33.87144 | 10.60881 | 2181 ft | 130 kts | 90° |
| 2026-04-27 13:42 | 33.87167 | 10.61970 | 2174 ft | 128 kts | 91° |
| 2026-04-27 13:43 | 33.87192 | 10.63021 | 2067 ft | 125 kts | 91° |
| 2026-04-27 13:43 | 33.87216 | 10.64080 | 1917 ft | 128 kts | 91° |
| 2026-04-27 13:43 | 33.87241 | 10.65161 | 1751 ft | 129 kts | 91° |
| 2026-04-27 13:43 | 33.87267 | 10.66241 | 1584 ft | 128 kts | 90° |
| 2026-04-27 13:44 | 33.87292 | 10.67301 | 1405 ft | 127 kts | 89° |
| 2026-04-27 13:44 | 33.87317 | 10.68347 | 1239 ft | 126 kts | 90° |
| 2026-04-27 13:44 | 33.87342 | 10.69416 | 1078 ft | 129 kts | 89° |
| 2026-04-27 13:44 | 33.87367 | 10.70430 | 925 ft | 130 kts | 89° |
| 2026-04-27 13:45 | 33.87388 | 10.71500 | 785 ft | 124 kts | 89° |
| 2026-04-27 13:45 | 33.87407 | 10.72531 | 622 ft | 124 kts | 88° |
| 2026-04-27 13:45 | 33.87434 | 10.73587 | 522 ft | 129 kts | 87° |
| 2026-04-27 13:45 | 33.87476 | 10.74656 | 377 ft | 126 kts | 86° |
| 2026-04-27 13:46 | 33.87496 | 10.75694 | 124 ft | 121 kts | 85° |
| 2026-04-27 13:46 | 33.87517 | 10.76659 | 26 ft | 107 kts | 85° |
| 2026-04-27 13:46 | 33.87537 | 10.77369 | 20 ft | 56 kts | 89° |
| 2026-04-27 13:46 | 33.87541 | 10.77667 | 23 ft | 17 kts | 113° |
| 2026-04-27 13:47 | 33.87448 | 10.77733 | 22 ft | 17 kts | 188° |
| 2026-04-27 13:47 | 33.87387 | 10.77637 | 21 ft | 17 kts | 270° |
| 2026-04-27 13:47 | 33.87384 | 10.77489 | 21 ft | 18 kts | 271° |
| 2026-04-27 13:47 | 33.87377 | 10.77358 | 21 ft | 6 kts | 241° |
| 2026-04-27 13:48 | 33.87350 | 10.77304 | 22 ft | 8 kts | 227° |
| 2026-04-27 13:48 | 33.87293 | 10.77265 | 22 ft | 11 kts | 205° |
| 2026-04-27 13:48 | 33.87247 | 10.77279 | 21 ft | 7 kts | 130° |
| 2026-04-27 13:48 | 33.87213 | 10.77319 | 21 ft | 6 kts | 140° |
| 2026-04-27 13:49 | 33.87202 | 10.77329 | 21 ft | 0 kts | 141° |